Terminal Aerodrome Forecast
Issued by NWS

Home | Current Version | Previous Version | Text Only | Print | Product List | Glossary On
Versions: 1 2 3 4 5 6 7 8 9 10 11 12 13
000
FTPA31 PHFO 241824 AAA
TAFHJH
TAF AMD
PHJH 241824Z 2418/2518 16008KT P6SM VCSH SCT050
     FM242000 25010KT P6SM FEW030 SCT050
     FM250600 VRB06KT P6SM FEW030 SCT050
      AMD NOT SKED AFT 250400=

USA.gov is the U.S. government's official web portal to all federal, state and local government web resources and services.